^^
Station Historical Data
Daily Summary for June 13, 2018 Units:  Both    English   Metric
« Previous Day
Next Day »
Daily Weekly Monthly Yearly Custom
  High: Low: Average:
Temperature: TemperatureF °F /  -17.8 °C 59.9 °F /  15.5 °C 69.1 °F /  20.6 °C
Dew Point: DewpointF °F /  -17.8 °C 59.5 °F /  15.3 °C 66.6 °F /  19.2 °C
Humidity: Humidity% 73% 92%
Wind Speed: WindSpeedMPHmph /  0km/h - 0.5mph /  0.8km/h
Wind Gust: WindSpeedGustMPHmph /  0km/h - -
Wind- - SSW
Pressure: PressureIn in /  0 hPa 30.34 in /  1027.3 hPa -
Precipitation: 0.12 in /  3.05 mm    
Historical Graphs
 
 
Tabular Data for June 13, 2018
Time Temperature Dew Point Pressure Wind Wind Speed Wind Gust Humidity Rainfall Rate (Hourly)
TemperatureF °F /  -17.8 °C DewpointF °F /  -17.8 °C PressureInin /  0hPa Calm     Humidity% HourlyPrecipInin /  0mm
00:02 64.0 °F /  17.8 °C 63.5 °F /  17.5 °C 30.45in /  1031hPa WNW 2.0mph /  3.2km/h 2.0mph /  3.2km/h 98% 0.00in /  0mm
00:07 64.0 °F /  17.8 °C 63.5 °F /  17.5 °C 30.45in /  1031hPa WNW 0.9mph /  1.4km/h 2.0mph /  3.2km/h 98% 0.00in /  0mm
00:12 64.0 °F /  17.8 °C 63.5 °F /  17.5 °C 30.45in /  1031hPa Calm   1.0mph /  1.6km/h 98% 0.00in /  0mm
00:17 64.0 °F /  17.8 °C 63.5 °F /  17.5 °C 30.46in /  1031.4hPa WNW 0.9mph /  1.4km/h 1.0mph /  1.6km/h 98% 0.00in /  0mm
00:22 63.9 °F /  17.7 °C 63.3 °F /  17.4 °C 30.46in /  1031.4hPa Calm     98% 0.00in /  0mm
00:27 63.9 °F /  17.7 °C 63.3 °F /  17.4 °C 30.46in /  1031.4hPa Calm     98% 0.00in /  0mm
00:37 63.5 °F /  17.5 °C 63.0 °F /  17.2 °C 30.46in /  1031.4hPa NE 0.9mph /  1.4km/h 2.0mph /  3.2km/h 98% 0.00in /  0mm
00:42 63.7 °F /  17.6 °C 63.1 °F /  17.3 °C 30.46in /  1031.4hPa Calm     98% 0.00in /  0mm
00:47 63.3 °F /  17.4 °C 62.8 °F /  17.1 °C 30.46in /  1031.4hPa Calm     98% 0.00in /  0mm
00:57 63.1 °F /  17.3 °C 62.6 °F /  17 °C 30.46in /  1031.4hPa Calm     98% 0.00in /  0mm
01:08 62.8 °F /  17.1 °C 62.2 °F /  16.8 °C 30.46in /  1031.4hPa Calm     98% 0.00in /  0mm
01:13 62.6 °F /  17 °C 62.1 °F /  16.7 °C 30.46in /  1031.4hPa Calm     98% 0.00in /  0mm
01:18 62.6 °F /  17 °C 62.2 °F /  16.8 °C 30.46in /  1031.4hPa Calm     99% 0.00in /  0mm
01:23 62.4 °F /  16.9 °C 62.1 °F /  16.7 °C 30.46in /  1031.4hPa Calm     99% 0.00in /  0mm
01:28 62.2 °F /  16.8 °C 61.9 °F /  16.6 °C 30.46in /  1031.4hPa Calm     99% 0.00in /  0mm
01:33 62.2 °F /  16.8 °C 61.9 °F /  16.6 °C 30.46in /  1031.4hPa Calm     99% 0.00in /  0mm
01:38 62.1 °F /  16.7 °C 61.7 °F /  16.5 °C 30.46in /  1031.4hPa Calm     99% 0.00in /  0mm
01:43 62.1 °F /  16.7 °C 61.7 °F /  16.5 °C 30.46in /  1031.4hPa Calm     99% 0.00in /  0mm
01:48 62.1 °F /  16.7 °C 61.7 °F /  16.5 °C 30.46in /  1031.4hPa Calm     99% 0.00in /  0mm
01:53 61.9 °F /  16.6 °C 61.5 °F /  16.4 °C 30.46in /  1031.4hPa Calm     99% 0.00in /  0mm
01:58 61.9 °F /  16.6 °C 61.5 °F /  16.4 °C 30.46in /  1031.4hPa Calm     99% 0.00in /  0mm
02:03 61.9 °F /  16.6 °C 61.5 °F /  16.4 °C 30.46in /  1031.4hPa Calm     99% 0.00in /  0mm
02:08 61.9 °F /  16.6 °C 61.5 °F /  16.4 °C 30.46in /  1031.4hPa WNW 0.9mph /  1.4km/h 2.0mph /  3.2km/h 99% 0.00in /  0mm
02:13 61.7 °F /  16.5 °C 61.3 °F /  16.3 °C 30.46in /  1031.4hPa Calm     99% 0.00in /  0mm
02:18 61.7 °F /  16.5 °C 61.3 °F /  16.3 °C 30.46in /  1031.4hPa Calm     99% 0.00in /  0mm
02:28 61.5 °F /  16.4 °C 61.2 °F /  16.2 °C 30.45in /  1031hPa Calm     99% 0.00in /  0mm
02:43 61.3 °F /  16.3 °C 61.0 °F /  16.1 °C 30.45in /  1031hPa Calm     99% 0.00in /  0mm
02:48 61.3 °F /  16.3 °C 61.0 °F /  16.1 °C 30.45in /  1031hPa Calm     99% 0.00in /  0mm
02:59 61.2 °F /  16.2 °C 60.8 °F /  16 °C 30.44in /  1030.7hPa Calm     99% 0.00in /  0mm
03:09 61.2 °F /  16.2 °C 60.8 °F /  16 °C 30.45in /  1031hPa Calm   1.0mph /  1.6km/h 99% 0.00in /  0mm
03:14 61.2 °F /  16.2 °C 60.8 °F /  16 °C 30.45in /  1031hPa Calm     99% 0.00in /  0mm
03:19 61.0 °F /  16.1 °C 60.6 °F /  15.9 °C 30.45in /  1031hPa Calm     99% 0.00in /  0mm
03:24 61.2 °F /  16.2 °C 60.8 °F /  16 °C 30.45in /  1031hPa Calm     99% 0.00in /  0mm
03:29 61.3 °F /  16.3 °C 61.0 °F /  16.1 °C 30.44in /  1030.7hPa Calm     99% 0.00in /  0mm
03:34 61.3 °F /  16.3 °C 61.0 °F /  16.1 °C 30.44in /  1030.7hPa Calm   1.0mph /  1.6km/h 99% 0.00in /  0mm
03:39 61.3 °F /  16.3 °C 61.0 °F /  16.1 °C 30.44in /  1030.7hPa Calm     99% 0.00in /  0mm
03:44 61.5 °F /  16.4 °C 61.2 °F /  16.2 °C 30.44in /  1030.7hPa Calm     99% 0.00in /  0mm
03:49 61.5 °F /  16.4 °C 61.2 °F /  16.2 °C 30.44in /  1030.7hPa Calm     99% 0.00in /  0mm
03:54 61.5 °F /  16.4 °C 61.2 °F /  16.2 °C 30.44in /  1030.7hPa Calm     99% 0.00in /  0mm
03:59 61.7 °F /  16.5 °C 61.3 °F /  16.3 °C 30.44in /  1030.7hPa Calm     99% 0.00in /  0mm
04:04 61.9 °F /  16.6 °C 61.5 °F /  16.4 °C 30.43in /  1030.4hPa Calm     99% 0.00in /  0mm
04:09 61.9 °F /  16.6 °C 61.5 °F /  16.4 °C 30.44in /  1030.7hPa Calm   1.0mph /  1.6km/h 99% 0.00in /  0mm
04:19 61.7 °F /  16.5 °C 61.3 °F /  16.3 °C 30.44in /  1030.7hPa Calm   1.0mph /  1.6km/h 99% 0.00in /  0mm
04:24 61.7 °F /  16.5 °C 61.3 °F /  16.3 °C 30.44in /  1030.7hPa Calm     99% 0.00in /  0mm
04:30 61.5 °F /  16.4 °C 61.2 °F /  16.2 °C 30.43in /  1030.4hPa WNW 0.9mph /  1.4km/h 1.0mph /  1.6km/h 99% 0.00in /  0mm
04:35 61.3 °F /  16.3 °C 61.0 °F /  16.1 °C 30.44in /  1030.7hPa Calm     99% 0.00in /  0mm
04:40 61.3 °F /  16.3 °C 61.0 °F /  16.1 °C 30.43in /  1030.4hPa Calm     99% 0.00in /  0mm
04:50 61.2 °F /  16.2 °C 60.8 °F /  16 °C 30.44in /  1030.7hPa Calm     99% 0.00in /  0mm
04:55 61.0 °F /  16.1 °C 60.6 °F /  15.9 °C 30.44in /  1030.7hPa WNW 0.9mph /  1.4km/h 1.0mph /  1.6km/h 99% 0.00in /  0mm
05:00 60.8 °F /  16 °C 60.4 °F /  15.8 °C 30.44in /  1030.7hPa Calm     99% 0.00in /  0mm
05:15 60.4 °F /  15.8 °C 60.1 °F /  15.6 °C 30.44in /  1030.7hPa Calm     99% 0.00in /  0mm
05:25 60.3 °F /  15.7 °C 59.9 °F /  15.5 °C 30.45in /  1031hPa Calm     99% 0.00in /  0mm
05:30 60.3 °F /  15.7 °C 59.9 °F /  15.5 °C 30.45in /  1031hPa Calm     99% 0.00in /  0mm
05:35 60.3 °F /  15.7 °C 59.9 °F /  15.5 °C 30.44in /  1030.7hPa Calm   1.0mph /  1.6km/h 99% 0.00in /  0mm
05:55 60.1 °F /  15.6 °C 59.7 °F /  15.4 °C 30.45in /  1031hPa Calm     99% 0.00in /  0mm
06:00 60.1 °F /  15.6 °C 59.7 °F /  15.4 °C 30.45in /  1031hPa Calm     99% 0.00in /  0mm
06:05 60.1 °F /  15.6 °C 59.7 °F /  15.4 °C 30.45in /  1031hPa Calm   1.0mph /  1.6km/h 99% 0.00in /  0mm
06:10 59.9 °F /  15.5 °C 59.5 °F /  15.3 °C 30.45in /  1031hPa Calm     99% 0.00in /  0mm
06:15 59.9 °F /  15.5 °C 59.5 °F /  15.3 °C 30.45in /  1031hPa Calm     99% 0.00in /  0mm
06:20 59.9 °F /  15.5 °C 59.5 °F /  15.3 °C 30.45in /  1031hPa Calm     99% 0.00in /  0mm
06:51 60.3 °F /  15.7 °C 59.9 °F /  15.5 °C 30.46in /  1031.4hPa Calm     99% 0.00in /  0mm
07:01 60.3 °F /  15.7 °C 59.9 °F /  15.5 °C 30.46in /  1031.4hPa West 0.9mph /  1.4km/h 1.0mph /  1.6km/h 99% 0.00in /  0mm
07:11 60.4 °F /  15.8 °C 60.1 °F /  15.6 °C 30.46in /  1031.4hPa WNW 0.9mph /  1.4km/h 1.0mph /  1.6km/h 99% 0.00in /  0mm
07:21 60.4 °F /  15.8 °C 60.1 °F /  15.6 °C 30.46in /  1031.4hPa Calm     99% 0.00in /  0mm
07:31 61.0 °F /  16.1 °C 60.6 °F /  15.9 °C 30.46in /  1031.4hPa West 0.9mph /  1.4km/h 1.0mph /  1.6km/h 99% 0.00in /  0mm
07:56 61.9 °F /  16.6 °C 61.5 °F /  16.4 °C 30.46in /  1031.4hPa Calm   1.0mph /  1.6km/h 99% 0.00in /  0mm
08:01 61.9 °F /  16.6 °C 61.5 °F /  16.4 °C 30.46in /  1031.4hPa Calm     99% 0.00in /  0mm
08:06 63.3 °F /  17.4 °C 63.0 °F /  17.2 °C 30.46in /  1031.4hPa Calm     99% 0.00in /  0mm
08:11 64.0 °F /  17.8 °C 63.7 °F /  17.6 °C 30.46in /  1031.4hPa Calm   1.0mph /  1.6km/h 99% 0.00in /  0mm
08:16 64.9 °F /  18.3 °C 64.4 °F /  18 °C 30.46in /  1031.4hPa Calm     98% 0.00in /  0mm
08:21 65.7 °F /  18.7 °C 64.8 °F /  18.2 °C 30.46in /  1031.4hPa Calm   2.0mph /  3.2km/h 97% 0.00in /  0mm
08:27 66.0 °F /  18.9 °C 64.2 °F /  17.9 °C 30.46in /  1031.4hPa Calm   1.0mph /  1.6km/h 94% 0.00in /  0mm
08:32 66.9 °F /  19.4 °C 65.7 °F /  18.7 °C 30.46in /  1031.4hPa Calm     96% 0.00in /  0mm
08:37 66.6 °F /  19.2 °C 65.1 °F /  18.4 °C 30.47in /  1031.7hPa Calm   1.0mph /  1.6km/h 95% 0.00in /  0mm
08:42 65.7 °F /  18.7 °C 63.9 °F /  17.7 °C 30.46in /  1031.4hPa ESE 0.9mph /  1.4km/h 2.0mph /  3.2km/h 94% 0.00in /  0mm
08:52 64.8 °F /  18.2 °C 63.7 °F /  17.6 °C 30.46in /  1031.4hPa ESE 0.9mph /  1.4km/h 1.0mph /  1.6km/h 96% 0.00in /  0mm
08:57 64.8 °F /  18.2 °C 63.7 °F /  17.6 °C 30.46in /  1031.4hPa Calm     96% 0.00in /  0mm
09:02 65.3 °F /  18.5 °C 63.9 °F /  17.7 °C 30.47in /  1031.7hPa Calm   1.0mph /  1.6km/h 95% 0.00in /  0mm
09:07 66.4 °F /  19.1 °C 64.9 °F /  18.3 °C 30.46in /  1031.4hPa Calm   1.0mph /  1.6km/h 95% 0.00in /  0mm
09:12 67.8 °F /  19.9 °C 66.4 °F /  19.1 °C 30.47in /  1031.7hPa Calm     95% 0.00in /  0mm
09:17 69.1 °F /  20.6 °C 66.9 °F /  19.4 °C 30.47in /  1031.7hPa Calm   1.0mph /  1.6km/h 93% 0.00in /  0mm
09:22 68.9 °F /  20.5 °C 66.2 °F /  19 °C 30.47in /  1031.7hPa East 0.9mph /  1.4km/h 1.0mph /  1.6km/h 91% 0.00in /  0mm
09:27 68.4 °F /  20.2 °C 65.7 °F /  18.7 °C 30.47in /  1031.7hPa Calm   1.0mph /  1.6km/h 91% 0.00in /  0mm
09:32 68.2 °F /  20.1 °C 65.8 °F /  18.8 °C 30.47in /  1031.7hPa Calm     92% 0.00in /  0mm
09:37 68.4 °F /  20.2 °C 65.7 °F /  18.7 °C 30.46in /  1031.4hPa ENE 0.9mph /  1.4km/h 1.0mph /  1.6km/h 91% 0.00in /  0mm
09:42 68.5 °F /  20.3 °C 66.2 °F /  19 °C 30.46in /  1031.4hPa Calm     92% 0.00in /  0mm
09:47 69.1 °F /  20.6 °C 66.4 °F /  19.1 °C 30.46in /  1031.4hPa East 0.9mph /  1.4km/h 1.0mph /  1.6km/h 91% 0.00in /  0mm
09:52 69.4 °F /  20.8 °C 66.7 °F /  19.3 °C 30.46in /  1031.4hPa Calm     91% 0.00in /  0mm
09:57 70.2 °F /  21.2 °C 67.5 °F /  19.7 °C 30.46in /  1031.4hPa Calm   1.0mph /  1.6km/h 91% 0.00in /  0mm
10:02 71.2 °F /  21.8 °C 67.8 °F /  19.9 °C 30.46in /  1031.4hPa ESE 0.9mph /  1.4km/h 2.0mph /  3.2km/h 89% 0.00in /  0mm
10:07 71.2 °F /  21.8 °C 67.5 °F /  19.7 °C 30.46in /  1031.4hPa Calm   2.0mph /  3.2km/h 88% 0.00in /  0mm
10:12 71.6 °F /  22 °C 68.2 °F /  20.1 °C 30.46in /  1031.4hPa Calm   1.0mph /  1.6km/h 89% 0.00in /  0mm
10:17 72.0 °F /  22.2 °C 68.2 °F /  20.1 °C 30.45in /  1031hPa Calm   1.0mph /  1.6km/h 88% 0.00in /  0mm
10:22 72.3 °F /  22.4 °C 67.8 °F /  19.9 °C 30.45in /  1031hPa Calm   1.0mph /  1.6km/h 86% 0.00in /  0mm
10:27 72.1 °F /  22.3 °C 68.0 °F /  20 °C 30.45in /  1031hPa Calm     87% 0.00in /  0mm
10:32 72.7 °F /  22.6 °C 69.3 °F /  20.7 °C 30.45in /  1031hPa Calm     89% 0.00in /  0mm
10:37 72.7 °F /  22.6 °C 68.2 °F /  20.1 °C 30.45in /  1031hPa SE 2.0mph /  3.2km/h 2.0mph /  3.2km/h 86% 0.00in /  0mm
10:42 72.9 °F /  22.7 °C 68.7 °F /  20.4 °C 30.45in /  1031hPa SE 0.9mph /  1.4km/h 1.0mph /  1.6km/h 87% 0.00in /  0mm
10:47 73.0 °F /  22.8 °C 68.5 °F /  20.3 °C 30.45in /  1031hPa Calm   2.0mph /  3.2km/h 86% 0.00in /  0mm
10:52 73.8 °F /  23.2 °C 69.3 °F /  20.7 °C 30.45in /  1031hPa Calm   3.0mph /  4.8km/h 86% 0.00in /  0mm
10:57 74.1 °F /  23.4 °C 68.9 °F /  20.5 °C 30.45in /  1031hPa Calm   1.0mph /  1.6km/h 84% 0.00in /  0mm
11:02 74.1 °F /  23.4 °C 68.5 °F /  20.3 °C 30.45in /  1031hPa Calm   2.0mph /  3.2km/h 83% 0.00in /  0mm
11:07 74.1 °F /  23.4 °C 68.9 °F /  20.5 °C 30.45in /  1031hPa Calm   1.0mph /  1.6km/h 84% 0.00in /  0mm
11:17 74.7 °F /  23.7 °C 69.1 °F /  20.6 °C 30.45in /  1031hPa West 0.9mph /  1.4km/h 1.0mph /  1.6km/h 83% 0.00in /  0mm
11:22 74.8 °F /  23.8 °C 69.6 °F /  20.9 °C 30.45in /  1031hPa West 0.9mph /  1.4km/h 1.0mph /  1.6km/h 84% 0.00in /  0mm
11:27 74.7 °F /  23.7 °C 69.1 °F /  20.6 °C 30.45in /  1031hPa WSW 0.9mph /  1.4km/h 3.0mph /  4.8km/h 83% 0.00in /  0mm
11:32 74.1 °F /  23.4 °C 68.9 °F /  20.5 °C 30.45in /  1031hPa Calm   1.0mph /  1.6km/h 84% 0.00in /  0mm
11:37 73.9 °F /  23.3 °C 68.7 °F /  20.4 °C 30.45in /  1031hPa Calm   1.0mph /  1.6km/h 84% 0.00in /  0mm
11:42 73.8 °F /  23.2 °C 68.4 °F /  20.2 °C 30.45in /  1031hPa WNW 4.0mph /  6.4km/h 4.0mph /  6.4km/h 83% 0.00in /  0mm
11:47 73.2 °F /  22.9 °C 68.4 °F /  20.2 °C 30.45in /  1031hPa West 0.9mph /  1.4km/h 3.0mph /  4.8km/h 85% 0.00in /  0mm
11:52 73.0 °F /  22.8 °C 68.0 °F /  20 °C 30.45in /  1031hPa Calm   5.0mph /  8km/h 84% 0.00in /  0mm
11:57 72.9 °F /  22.7 °C 68.7 °F /  20.4 °C 30.45in /  1031hPa West 2.0mph /  3.2km/h 4.0mph /  6.4km/h 87% 0.00in /  0mm
12:02 72.9 °F /  22.7 °C 68.4 °F /  20.2 °C 30.45in /  1031hPa Calm   3.0mph /  4.8km/h 86% 0.00in /  0mm
12:07 72.9 °F /  22.7 °C 68.7 °F /  20.4 °C 30.45in /  1031hPa West 4.0mph /  6.4km/h 4.0mph /  6.4km/h 87% 0.00in /  0mm
12:12 72.9 °F /  22.7 °C 68.7 °F /  20.4 °C 30.46in /  1031.4hPa ESE 2.0mph /  3.2km/h 2.0mph /  3.2km/h 87% 0.00in /  0mm
12:22 73.0 °F /  22.8 °C 68.5 °F /  20.3 °C 30.45in /  1031hPa East 0.9mph /  1.4km/h 6.0mph /  9.7km/h 86% 0.00in /  0mm
12:27 73.0 °F /  22.8 °C 68.5 °F /  20.3 °C 30.46in /  1031.4hPa Calm   4.0mph /  6.4km/h 86% 0.00in /  0mm
12:32 72.9 °F /  22.7 °C 69.1 °F /  20.6 °C 30.45in /  1031hPa ENE 2.9mph /  4.7km/h 3.0mph /  4.8km/h 88% 0.00in /  0mm
12:37 72.7 °F /  22.6 °C 68.9 °F /  20.5 °C 30.46in /  1031.4hPa ENE 0.9mph /  1.4km/h 3.0mph /  4.8km/h 88% 0.00in /  0mm
12:47 72.1 °F /  22.3 °C 69.1 °F /  20.6 °C 30.45in /  1031hPa Calm   2.0mph /  3.2km/h 90% 0.00in /  0mm
12:57 72.1 °F /  22.3 °C 70.0 °F /  21.1 °C 30.45in /  1031hPa East 0.9mph /  1.4km/h 1.0mph /  1.6km/h 93% 0.01in /  0.25mm
13:02 72.3 °F /  22.4 °C 69.6 °F /  20.9 °C 30.45in /  1031hPa Calm   2.0mph /  3.2km/h 91% 0.01in /  0.25mm
13:22 73.0 °F /  22.8 °C 70.0 °F /  21.1 °C 30.45in /  1031hPa Calm     90% 0.01in /  0.25mm
13:27 73.2 °F /  22.9 °C 70.2 °F /  21.2 °C 30.44in /  1030.7hPa ESE 2.9mph /  4.7km/h 3.0mph /  4.8km/h 90% 0.01in /  0.25mm
13:42 74.3 °F /  23.5 °C 69.8 °F /  21 °C 30.43in /  1030.4hPa Calm   2.0mph /  3.2km/h 86% 0.01in /  0.25mm
13:47 74.7 °F /  23.7 °C 69.8 °F /  21 °C 30.43in /  1030.4hPa ENE 4.9mph /  7.9km/h 5.0mph /  8km/h 85% 0.01in /  0.25mm
13:58 75.0 °F /  23.9 °C 69.8 °F /  21 °C 30.42in /  1030hPa Calm   4.0mph /  6.4km/h 84% 0.00in /  0mm
14:03 75.7 °F /  24.3 °C 70.2 °F /  21.2 °C 30.42in /  1030hPa Calm   4.0mph /  6.4km/h 83% 0.00in /  0mm
14:13 76.8 °F /  24.9 °C 70.2 °F /  21.2 °C 30.42in /  1030hPa Calm   4.0mph /  6.4km/h 80% 0.00in /  0mm
14:18 76.8 °F /  24.9 °C 70.2 °F /  21.2 °C 30.42in /  1030hPa WSW 0.9mph /  1.4km/h 3.0mph /  4.8km/h 80% 0.00in /  0mm
14:28 77.5 °F /  25.3 °C 69.8 °F /  21 °C 30.41in /  1029.7hPa WNW 0.9mph /  1.4km/h 5.0mph /  8km/h 77% 0.00in /  0mm
14:38 77.7 °F /  25.4 °C 70.3 °F /  21.3 °C 30.41in /  1029.7hPa SSE 0.9mph /  1.4km/h 1.0mph /  1.6km/h 78% 0.00in /  0mm
14:43 78.4 °F /  25.8 °C 71.8 °F /  22.1 °C 30.40in /  1029.3hPa ESE 2.0mph /  3.2km/h 2.0mph /  3.2km/h 80% 0.00in /  0mm
14:48 79.0 °F /  26.1 °C 70.3 °F /  21.3 °C 30.40in /  1029.3hPa ESE 2.9mph /  4.7km/h 4.0mph /  6.4km/h 75% 0.00in /  0mm
14:53 79.7 °F /  26.5 °C 70.3 °F /  21.3 °C 30.40in /  1029.3hPa East 4.0mph /  6.4km/h 5.0mph /  8km/h 73% 0.00in /  0mm
14:58 79.5 °F /  26.4 °C 71.2 °F /  21.8 °C 30.39in /  1029hPa ESE 2.0mph /  3.2km/h 2.0mph /  3.2km/h 76% 0.00in /  0mm
15:03 79.2 °F /  26.2 °C 70.2 °F /  21.2 °C 30.39in /  1029hPa ENE 2.0mph /  3.2km/h 3.0mph /  4.8km/h 74% 0.00in /  0mm
15:08 78.6 °F /  25.9 °C 70.0 °F /  21.1 °C 30.39in /  1029hPa West 2.9mph /  4.7km/h 4.0mph /  6.4km/h 75% 0.00in /  0mm
15:13 77.4 °F /  25.2 °C 70.0 °F /  21.1 °C 30.39in /  1029hPa WSW 0.9mph /  1.4km/h 2.0mph /  3.2km/h 78% 0.00in /  0mm
15:18 75.9 °F /  24.4 °C 69.6 °F /  20.9 °C 30.40in /  1029.3hPa SW 2.9mph /  4.7km/h 9.0mph /  14.5km/h 81% 0.00in /  0mm
15:23 74.7 °F /  23.7 °C 70.5 °F /  21.4 °C 30.40in /  1029.3hPa WSW 0.9mph /  1.4km/h 6.0mph /  9.7km/h 87% 0.07in /  1.78mm
15:28 72.9 °F /  22.7 °C 70.2 °F /  21.2 °C 30.40in /  1029.3hPa ENE 0.9mph /  1.4km/h 2.0mph /  3.2km/h 91% 0.09in /  2.29mm
15:33 72.1 °F /  22.3 °C 70.0 °F /  21.1 °C 30.40in /  1029.3hPa East 2.0mph /  3.2km/h 4.0mph /  6.4km/h 93% 0.09in /  2.29mm
15:38 72.0 °F /  22.2 °C 70.5 °F /  21.4 °C 30.40in /  1029.3hPa Calm     95% 0.09in /  2.29mm
15:43 72.3 °F /  22.4 °C 70.9 °F /  21.6 °C 30.40in /  1029.3hPa Calm   1.0mph /  1.6km/h 95% 0.09in /  2.29mm
15:48 72.1 °F /  22.3 °C 70.7 °F /  21.5 °C 30.40in /  1029.3hPa Calm     95% 0.09in /  2.29mm
15:53 72.3 °F /  22.4 °C 71.1 °F /  21.7 °C 30.39in /  1029hPa Calm   2.0mph /  3.2km/h 96% 0.10in /  2.54mm
15:58 73.0 °F /  22.8 °C 71.8 °F /  22.1 °C 30.39in /  1029hPa Calm   1.0mph /  1.6km/h 96% 0.11in /  2.79mm
16:03 73.2 °F /  22.9 °C 72.0 °F /  22.2 °C 30.39in /  1029hPa ENE 2.0mph /  3.2km/h 2.0mph /  3.2km/h 96% 0.11in /  2.79mm
16:13 73.9 °F /  23.3 °C 72.5 °F /  22.5 °C 30.39in /  1029hPa Calm   1.0mph /  1.6km/h 95% 0.11in /  2.79mm
16:18 75.0 °F /  23.9 °C 73.2 °F /  22.9 °C 30.39in /  1029hPa WNW 2.9mph /  4.7km/h 3.0mph /  4.8km/h 94% 0.11in /  2.79mm
16:23 75.4 °F /  24.1 °C 72.9 °F /  22.7 °C 30.39in /  1029hPa ENE 4.9mph /  7.9km/h 6.0mph /  9.7km/h 92% 0.04in /  1.02mm
16:28 75.4 °F /  24.1 °C 72.0 °F /  22.2 °C 30.38in /  1028.7hPa West 2.9mph /  4.7km/h 3.0mph /  4.8km/h 89% 0.02in /  0.51mm
16:33 75.0 °F /  23.9 °C 71.6 °F /  22 °C 30.38in /  1028.7hPa SE 2.0mph /  3.2km/h 2.0mph /  3.2km/h 89% 0.02in /  0.51mm
16:38 75.4 °F /  24.1 °C 70.9 °F /  21.6 °C 30.38in /  1028.7hPa ESE 0.9mph /  1.4km/h 3.0mph /  4.8km/h 86% 0.02in /  0.51mm
16:48 76.6 °F /  24.8 °C 72.9 °F /  22.7 °C 30.37in /  1028.3hPa Calm   2.0mph /  3.2km/h 88% 0.02in /  0.51mm
16:53 77.0 °F /  25 °C 71.8 °F /  22.1 °C 30.37in /  1028.3hPa SE 0.9mph /  1.4km/h 2.0mph /  3.2km/h 84% 0.01in /  0.25mm
16:58 77.7 °F /  25.4 °C 72.5 °F /  22.5 °C 30.37in /  1028.3hPa Calm   1.0mph /  1.6km/h 84% 0.00in /  0mm
17:03 78.1 °F /  25.6 °C 73.2 °F /  22.9 °C 30.37in /  1028.3hPa WSW 0.9mph /  1.4km/h 1.0mph /  1.6km/h 85% 0.00in /  0mm
17:08 77.5 °F /  25.3 °C 73.0 °F /  22.8 °C 30.37in /  1028.3hPa Calm   1.0mph /  1.6km/h 86% 0.00in /  0mm
17:13 77.7 °F /  25.4 °C 71.8 °F /  22.1 °C 30.37in /  1028.3hPa West 0.9mph /  1.4km/h 1.0mph /  1.6km/h 82% 0.00in /  0mm
17:18 77.7 °F /  25.4 °C 71.8 °F /  22.1 °C 30.36in /  1028hPa West 2.0mph /  3.2km/h 2.0mph /  3.2km/h 82% 0.00in /  0mm
17:23 77.4 °F /  25.2 °C 72.1 °F /  22.3 °C 30.37in /  1028.3hPa West 0.9mph /  1.4km/h 2.0mph /  3.2km/h 84% 0.00in /  0mm
17:28 77.5 °F /  25.3 °C 72.0 °F /  22.2 °C 30.37in /  1028.3hPa West 2.0mph /  3.2km/h 3.0mph /  4.8km/h 83% 0.00in /  0mm
17:33 78.4 °F /  25.8 °C 72.5 °F /  22.5 °C 30.37in /  1028.3hPa Calm   2.0mph /  3.2km/h 82% 0.00in /  0mm
17:38 78.6 °F /  25.9 °C 72.7 °F /  22.6 °C 30.36in /  1028hPa SSE 0.9mph /  1.4km/h 1.0mph /  1.6km/h 82% 0.00in /  0mm
17:43 79.3 °F /  26.3 °C 73.4 °F /  23 °C 30.36in /  1028hPa Calm   1.0mph /  1.6km/h 82% 0.00in /  0mm
17:48 80.1 °F /  26.7 °C 72.5 °F /  22.5 °C 30.36in /  1028hPa West 2.0mph /  3.2km/h 2.0mph /  3.2km/h 78% 0.00in /  0mm
17:53 79.3 °F /  26.3 °C 71.4 °F /  21.9 °C 30.36in /  1028hPa West 2.0mph /  3.2km/h 4.0mph /  6.4km/h 77% 0.00in /  0mm
18:03 79.5 °F /  26.4 °C 72.1 °F /  22.3 °C 30.35in /  1027.7hPa Calm   2.0mph /  3.2km/h 78% 0.00in /  0mm
18:08 79.5 °F /  26.4 °C 72.1 °F /  22.3 °C 30.35in /  1027.7hPa WSW 0.9mph /  1.4km/h 2.0mph /  3.2km/h 78% 0.00in /  0mm
18:13 79.7 °F /  26.5 °C 73.4 °F /  23 °C 30.35in /  1027.7hPa Calm   1.0mph /  1.6km/h 81% 0.00in /  0mm
18:23 80.1 °F /  26.7 °C 74.1 °F /  23.4 °C 30.35in /  1027.7hPa Calm     82% 0.00in /  0mm
18:33 79.9 °F /  26.6 °C 73.6 °F /  23.1 °C 30.35in /  1027.7hPa Calm   1.0mph /  1.6km/h 81% 0.00in /  0mm
18:43 80.1 °F /  26.7 °C 70.7 °F /  21.5 °C 30.35in /  1027.7hPa East 0.9mph /  1.4km/h 3.0mph /  4.8km/h 73% 0.00in /  0mm
18:48 79.7 °F /  26.5 °C 73.4 °F /  23 °C 30.35in /  1027.7hPa Calm   1.0mph /  1.6km/h 81% 0.00in /  0mm
19:03 78.8 °F /  26 °C 72.9 °F /  22.7 °C 30.34in /  1027.3hPa WNW 0.9mph /  1.4km/h 1.0mph /  1.6km/h 82% 0.00in /  0mm
19:08 78.4 °F /  25.8 °C 72.1 °F /  22.3 °C 30.35in /  1027.7hPa WNW 0.9mph /  1.4km/h 1.0mph /  1.6km/h 81% 0.00in /  0mm
19:18 77.7 °F /  25.4 °C 72.5 °F /  22.5 °C 30.35in /  1027.7hPa WNW 0.9mph /  1.4km/h 2.0mph /  3.2km/h 84% 0.00in /  0mm
19:23 77.9 °F /  25.5 °C 72.0 °F /  22.2 °C 30.36in /  1028hPa WNW 0.9mph /  1.4km/h 1.0mph /  1.6km/h 82% 0.00in /  0mm
19:28 77.5 °F /  25.3 °C 72.0 °F /  22.2 °C 30.36in /  1028hPa WNW 0.9mph /  1.4km/h 1.0mph /  1.6km/h 83% 0.00in /  0mm
19:33 76.8 °F /  24.9 °C 72.0 °F /  22.2 °C 30.36in /  1028hPa West 0.9mph /  1.4km/h 1.0mph /  1.6km/h 85% 0.00in /  0mm
19:38 75.4 °F /  24.1 °C 71.2 °F /  21.8 °C 30.36in /  1028hPa Calm   1.0mph /  1.6km/h 87% 0.00in /  0mm
19:43 75.7 °F /  24.3 °C 71.6 °F /  22 °C 30.36in /  1028hPa Calm   1.0mph /  1.6km/h 87% 0.00in /  0mm
20:04 73.0 °F /  22.8 °C 70.3 °F /  21.3 °C 30.36in /  1028hPa Calm     91% 0.00in /  0mm
20:29 72.0 °F /  22.2 °C 70.2 °F /  21.2 °C 30.37in /  1028.3hPa Calm     94% 0.00in /  0mm
20:34 71.8 °F /  22.1 °C 70.3 °F /  21.3 °C 30.37in /  1028.3hPa Calm     95% 0.00in /  0mm
20:39 71.6 °F /  22 °C 70.2 °F /  21.2 °C 30.37in /  1028.3hPa Calm     95% 0.00in /  0mm
20:54 71.1 °F /  21.7 °C 69.8 °F /  21 °C 30.38in /  1028.7hPa Calm     96% 0.00in /  0mm
20:59 71.1 °F /  21.7 °C 69.8 °F /  21 °C 30.38in /  1028.7hPa Calm     96% 0.00in /  0mm
21:04 70.9 °F /  21.6 °C 69.6 °F /  20.9 °C 30.38in /  1028.7hPa Calm   1.0mph /  1.6km/h 96% 0.00in /  0mm
21:09 70.7 °F /  21.5 °C 69.8 °F /  21 °C 30.38in /  1028.7hPa Calm     97% 0.00in /  0mm
21:14 70.5 °F /  21.4 °C 69.6 °F /  20.9 °C 30.38in /  1028.7hPa Calm     97% 0.00in /  0mm
21:19 70.3 °F /  21.3 °C 69.4 °F /  20.8 °C 30.38in /  1028.7hPa Calm     97% 0.00in /  0mm
21:29 70.2 °F /  21.2 °C 69.3 °F /  20.7 °C 30.38in /  1028.7hPa Calm     97% 0.00in /  0mm
21:34 70.2 °F /  21.2 °C 69.3 °F /  20.7 °C 30.39in /  1029hPa Calm     97% 0.00in /  0mm
21:39 70.0 °F /  21.1 °C 69.1 °F /  20.6 °C 30.38in /  1028.7hPa Calm   1.0mph /  1.6km/h 97% 0.00in /  0mm
21:44 70.0 °F /  21.1 °C 69.1 °F /  20.6 °C 30.38in /  1028.7hPa Calm     97% 0.00in /  0mm
21:49 69.8 °F /  21 °C 68.9 °F /  20.5 °C 30.39in /  1029hPa Calm     97% 0.00in /  0mm
21:54 69.6 °F /  20.9 °C 68.7 °F /  20.4 °C 30.39in /  1029hPa Calm     97% 0.00in /  0mm
22:04 69.4 °F /  20.8 °C 68.9 °F /  20.5 °C 30.39in /  1029hPa Calm     98% 0.00in /  0mm
22:09 69.3 °F /  20.7 °C 68.7 °F /  20.4 °C 30.39in /  1029hPa Calm     98% 0.00in /  0mm
22:14 69.3 °F /  20.7 °C 68.7 °F /  20.4 °C 30.39in /  1029hPa Calm     98% 0.00in /  0mm
22:19 69.3 °F /  20.7 °C 68.7 °F /  20.4 °C 30.39in /  1029hPa Calm     98% 0.00in /  0mm
22:24 69.1 °F /  20.6 °C 68.5 °F /  20.3 °C 30.39in /  1029hPa Calm     98% 0.00in /  0mm
22:29 69.1 °F /  20.6 °C 68.5 °F /  20.3 °C 30.40in /  1029.3hPa Calm     98% 0.00in /  0mm
22:40 69.1 °F /  20.6 °C 68.5 °F /  20.3 °C 30.40in /  1029.3hPa Calm     98% 0.00in /  0mm
22:45 68.9 °F /  20.5 °C 68.4 °F /  20.2 °C 30.40in /  1029.3hPa Calm     98% 0.00in /  0mm
22:55 68.7 °F /  20.4 °C 68.2 °F /  20.1 °C 30.40in /  1029.3hPa Calm     98% 0.00in /  0mm
23:00 68.7 °F /  20.4 °C 68.2 °F /  20.1 °C 30.40in /  1029.3hPa Calm     98% 0.00in /  0mm
23:05 68.5 °F /  20.3 °C 68.0 °F /  20 °C 30.40in /  1029.3hPa Calm     98% 0.00in /  0mm
23:10 68.5 °F /  20.3 °C 68.0 °F /  20 °C 30.40in /  1029.3hPa Calm     98% 0.00in /  0mm
23:20 68.5 °F /  20.3 °C 68.0 °F /  20 °C 30.40in /  1029.3hPa Calm     98% 0.00in /  0mm
23:25 68.4 °F /  20.2 °C 67.8 °F /  19.9 °C 30.40in /  1029.3hPa Calm     98% 0.00in /  0mm
23:35 68.2 °F /  20.1 °C 67.6 °F /  19.8 °C 30.41in /  1029.7hPa Calm     98% 0.00in /  0mm
23:40 68.2 °F /  20.1 °C 67.6 °F /  19.8 °C 30.40in /  1029.3hPa Calm     98% 0.00in /  0mm
23:45 68.4 °F /  20.2 °C 67.8 °F /  19.9 °C 30.40in /  1029.3hPa Calm     98% 0.00in /  0mm
23:50 68.4 °F /  20.2 °C 67.8 °F /  19.9 °C 30.40in /  1029.3hPa Calm     98% 0.00in /  0mm
23:55 68.2 °F /  20.1 °C 67.6 °F /  19.8 °C 30.40in /  1029.3hPa Calm     98% 0.00in /  0mm
WheeWeather.com
Compliments of Weather Underground - 2.25 mb